sensor_id;sensor_type;location;lat;lon;timestamp;temperature;humidity
14873;DHT22;7528;48.576;19.122;2022-11-13T00:04:02;10.20;64.50
14873;DHT22;7528;48.576;19.122;2022-11-13T00:09:23;10.10;64.50
14873;DHT22;7528;48.576;19.122;2022-11-13T00:14:45;10.10;64.60
14873;DHT22;7528;48.576;19.122;2022-11-13T00:20:08;10.00;64.40
14873;DHT22;7528;48.576;19.122;2022-11-13T00:25:29;10.00;63.90
14873;DHT22;7528;48.576;19.122;2022-11-13T00:30:56;10.00;64.20
14873;DHT22;7528;48.576;19.122;2022-11-13T00:36:20;10.00;64.10
14873;DHT22;7528;48.576;19.122;2022-11-13T00:41:42;10.00;64.10
14873;DHT22;7528;48.576;19.122;2022-11-13T00:47:03;10.00;64.80
14873;DHT22;7528;48.576;19.122;2022-11-13T00:52:27;10.00;65.10
14873;DHT22;7528;48.576;19.122;2022-11-13T00:57:47;9.90;65.60
14873;DHT22;7528;48.576;19.122;2022-11-13T01:03:09;9.80;65.80
14873;DHT22;7528;48.576;19.122;2022-11-13T01:08:32;9.80;66.10
14873;DHT22;7528;48.576;19.122;2022-11-13T01:13:53;9.90;66.70
14873;DHT22;7528;48.576;19.122;2022-11-13T01:19:15;9.80;66.70
14873;DHT22;7528;48.576;19.122;2022-11-13T01:24:38;9.90;66.90
14873;DHT22;7528;48.576;19.122;2022-11-13T01:29:59;9.90;66.50
14873;DHT22;7528;48.576;19.122;2022-11-13T01:35:21;9.80;67.00
14873;DHT22;7528;48.576;19.122;2022-11-13T01:40:46;9.70;67.50
14873;DHT22;7528;48.576;19.122;2022-11-13T01:46:14;9.80;67.40
14873;DHT22;7528;48.576;19.122;2022-11-13T01:51:38;9.70;67.40
14873;DHT22;7528;48.576;19.122;2022-11-13T01:57:03;9.80;67.60
14873;DHT22;7528;48.576;19.122;2022-11-13T02:02:25;9.80;67.70
14873;DHT22;7528;48.576;19.122;2022-11-13T02:07:46;9.70;67.70
14873;DHT22;7528;48.576;19.122;2022-11-13T02:13:10;9.70;67.90
14873;DHT22;7528;48.576;19.122;2022-11-13T02:18:33;9.80;67.80
14873;DHT22;7528;48.576;19.122;2022-11-13T02:24:01;9.80;68.40
14873;DHT22;7528;48.576;19.122;2022-11-13T02:29:25;9.80;68.30
14873;DHT22;7528;48.576;19.122;2022-11-13T02:34:47;9.80;69.20
14873;DHT22;7528;48.576;19.122;2022-11-13T02:40:08;9.70;69.70
14873;DHT22;7528;48.576;19.122;2022-11-13T02:45:31;9.80;70.00
14873;DHT22;7528;48.576;19.122;2022-11-13T02:50:52;9.70;70.40
14873;DHT22;7528;48.576;19.122;2022-11-13T02:56:13;9.50;70.60
14873;DHT22;7528;48.576;19.122;2022-11-13T03:01:36;9.50;71.10
14873;DHT22;7528;48.576;19.122;2022-11-13T03:06:57;9.50;70.90
14873;DHT22;7528;48.576;19.122;2022-11-13T03:12:18;9.50;71.10
14873;DHT22;7528;48.576;19.122;2022-11-13T03:17:41;9.60;71.00
14873;DHT22;7528;48.576;19.122;2022-11-13T03:23:03;9.60;70.30
14873;DHT22;7528;48.576;19.122;2022-11-13T03:28:24;9.50;70.40
14873;DHT22;7528;48.576;19.122;2022-11-13T03:33:47;9.60;70.10
14873;DHT22;7528;48.576;19.122;2022-11-13T03:39:08;9.50;70.10
14873;DHT22;7528;48.576;19.122;2022-11-13T03:44:29;9.60;69.80
14873;DHT22;7528;48.576;19.122;2022-11-13T03:49:52;9.70;69.30
14873;DHT22;7528;48.576;19.122;2022-11-13T03:55:13;9.60;69.50
14873;DHT22;7528;48.576;19.122;2022-11-13T04:00:35;9.50;69.80
14873;DHT22;7528;48.576;19.122;2022-11-13T04:05:58;9.50;70.20
14873;DHT22;7528;48.576;19.122;2022-11-13T04:11:19;9.50;70.50
14873;DHT22;7528;48.576;19.122;2022-11-13T04:16:40;9.50;70.40
14873;DHT22;7528;48.576;19.122;2022-11-13T04:22:02;9.50;70.10
14873;DHT22;7528;48.576;19.122;2022-11-13T04:27:24;9.50;71.10
14873;DHT22;7528;48.576;19.122;2022-11-13T04:32:45;9.50;71.00
14873;DHT22;7528;48.576;19.122;2022-11-13T04:38:07;9.50;71.00
14873;DHT22;7528;48.576;19.122;2022-11-13T04:43:29;9.60;71.20
14873;DHT22;7528;48.576;19.122;2022-11-13T04:48:50;9.60;71.00
14873;DHT22;7528;48.576;19.122;2022-11-13T04:54:12;9.50;71.50
14873;DHT22;7528;48.576;19.122;2022-11-13T04:59:34;9.50;72.80
14873;DHT22;7528;48.576;19.122;2022-11-13T05:04:55;9.40;73.70
14873;DHT22;7528;48.576;19.122;2022-11-13T05:10:17;9.50;73.90
14873;DHT22;7528;48.576;19.122;2022-11-13T05:15:38;9.40;74.40
14873;DHT22;7528;48.576;19.122;2022-11-13T05:21:00;9.50;74.50
14873;DHT22;7528;48.576;19.122;2022-11-13T05:26:23;9.50;74.90
14873;DHT22;7528;48.576;19.122;2022-11-13T05:31:46;9.40;75.30
14873;DHT22;7528;48.576;19.122;2022-11-13T05:37:07;9.40;75.40
14873;DHT22;7528;48.576;19.122;2022-11-13T05:42:29;9.30;74.30
14873;DHT22;7528;48.576;19.122;2022-11-13T05:47:50;9.20;72.00
14873;DHT22;7528;48.576;19.122;2022-11-13T05:53:12;9.10;72.10
14873;DHT22;7528;48.576;19.122;2022-11-13T05:58:34;9.20;72.20
14873;DHT22;7528;48.576;19.122;2022-11-13T06:03:56;9.30;72.00
14873;DHT22;7528;48.576;19.122;2022-11-13T06:09:18;9.30;71.90
14873;DHT22;7528;48.576;19.122;2022-11-13T06:14:41;9.40;71.00
14873;DHT22;7528;48.576;19.122;2022-11-13T06:20:02;9.40;70.90
14873;DHT22;7528;48.576;19.122;2022-11-13T06:25:24;9.50;71.30
14873;DHT22;7528;48.576;19.122;2022-11-13T06:30:46;9.40;71.20
14873;DHT22;7528;48.576;19.122;2022-11-13T06:36:10;9.50;71.10
14873;DHT22;7528;48.576;19.122;2022-11-13T06:41:31;9.40;71.30
14873;DHT22;7528;48.576;19.122;2022-11-13T06:46:54;9.30;71.70
14873;DHT22;7528;48.576;19.122;2022-11-13T06:52:15;9.40;72.10
14873;DHT22;7528;48.576;19.122;2022-11-13T06:57:36;9.40;71.90
14873;DHT22;7528;48.576;19.122;2022-11-13T07:02:59;9.30;71.90
14873;DHT22;7528;48.576;19.122;2022-11-13T07:08:20;9.30;71.60
14873;DHT22;7528;48.576;19.122;2022-11-13T07:13:42;9.30;72.30
14873;DHT22;7528;48.576;19.122;2022-11-13T07:19:05;9.30;72.50
14873;DHT22;7528;48.576;19.122;2022-11-13T07:24:26;9.30;72.10
14873;DHT22;7528;48.576;19.122;2022-11-13T07:29:47;9.30;72.80
14873;DHT22;7528;48.576;19.122;2022-11-13T07:35:10;9.20;73.00
14873;DHT22;7528;48.576;19.122;2022-11-13T07:40:31;9.20;72.80
14873;DHT22;7528;48.576;19.122;2022-11-13T07:45:52;9.20;73.30
14873;DHT22;7528;48.576;19.122;2022-11-13T07:51:15;9.10;72.90
14873;DHT22;7528;48.576;19.122;2022-11-13T07:56:36;9.20;73.60
14873;DHT22;7528;48.576;19.122;2022-11-13T08:01:57;9.20;73.10
14873;DHT22;7528;48.576;19.122;2022-11-13T08:07:20;9.20;72.50
14873;DHT22;7528;48.576;19.122;2022-11-13T08:12:41;9.20;72.80
14873;DHT22;7528;48.576;19.122;2022-11-13T08:18:03;9.30;72.30
14873;DHT22;7528;48.576;19.122;2022-11-13T08:23:26;9.40;72.70
14873;DHT22;7528;48.576;19.122;2022-11-13T08:28:47;9.50;72.70
14873;DHT22;7528;48.576;19.122;2022-11-13T08:34:09;9.50;72.40
14873;DHT22;7528;48.576;19.122;2022-11-13T08:39:31;9.70;72.30
14873;DHT22;7528;48.576;19.122;2022-11-13T08:44:53;9.70;71.90
14873;DHT22;7528;48.576;19.122;2022-11-13T08:50:15;9.70;71.70
14873;DHT22;7528;48.576;19.122;2022-11-13T08:55:37;9.80;71.60
14873;DHT22;7528;48.576;19.122;2022-11-13T09:01:02;10.00;71.00
14873;DHT22;7528;48.576;19.122;2022-11-13T09:06:23;10.20;70.00
14873;DHT22;7528;48.576;19.122;2022-11-13T09:11:46;10.40;69.80
14873;DHT22;7528;48.576;19.122;2022-11-13T09:17:07;10.60;69.40
14873;DHT22;7528;48.576;19.122;2022-11-13T09:22:28;10.60;69.00
14873;DHT22;7528;48.576;19.122;2022-11-13T09:27:55;10.70;69.80
14873;DHT22;7528;48.576;19.122;2022-11-13T09:33:16;11.00;68.50
14873;DHT22;7528;48.576;19.122;2022-11-13T09:38:37;11.30;67.80
14873;DHT22;7528;48.576;19.122;2022-11-13T09:44:02;11.60;67.00
14873;DHT22;7528;48.576;19.122;2022-11-13T09:49:27;12.00;67.20
14873;DHT22;7528;48.576;19.122;2022-11-13T09:54:49;12.20;64.40
14873;DHT22;7528;48.576;19.122;2022-11-13T10:00:14;12.60;64.20
14873;DHT22;7528;48.576;19.122;2022-11-13T10:05:41;13.40;62.70
14873;DHT22;7528;48.576;19.122;2022-11-13T10:11:08;14.10;59.50
14873;DHT22;7528;48.576;19.122;2022-11-13T10:16:38;15.00;58.80
14873;DHT22;7528;48.576;19.122;2022-11-13T10:22:02;17.70;55.50
14873;DHT22;7528;48.576;19.122;2022-11-13T10:27:25;20.10;48.20
14873;DHT22;7528;48.576;19.122;2022-11-13T10:32:47;21.80;43.90
14873;DHT22;7528;48.576;19.122;2022-11-13T10:38:18;22.80;41.30
14873;DHT22;7528;48.576;19.122;2022-11-13T10:44:05;23.80;39.20
14873;DHT22;7528;48.576;19.122;2022-11-13T10:49:29;24.80;36.40
14873;DHT22;7528;48.576;19.122;2022-11-13T10:54:50;25.70;35.70
14873;DHT22;7528;48.576;19.122;2022-11-13T11:00:29;26.50;33.10
14873;DHT22;7528;48.576;19.122;2022-11-13T11:05:54;27.20;32.70
14873;DHT22;7528;48.576;19.122;2022-11-13T11:11:16;28.00;31.10
14873;DHT22;7528;48.576;19.122;2022-11-13T11:16:57;28.40;30.10
14873;DHT22;7528;48.576;19.122;2022-11-13T11:22:22;28.70;28.90
14873;DHT22;7528;48.576;19.122;2022-11-13T11:27:48;29.00;29.00
14873;DHT22;7528;48.576;19.122;2022-11-13T11:33:14;29.40;28.50
14873;DHT22;7528;48.576;19.122;2022-11-13T11:38:43;29.80;28.00
14873;DHT22;7528;48.576;19.122;2022-11-13T11:44:14;30.00;27.50
14873;DHT22;7528;48.576;19.122;2022-11-13T11:49:36;30.30;27.60
14873;DHT22;7528;48.576;19.122;2022-11-13T11:55:09;30.80;27.30
14873;DHT22;7528;48.576;19.122;2022-11-13T12:00:35;30.90;26.60
14873;DHT22;7528;48.576;19.122;2022-11-13T12:06:05;30.90;26.90
14873;DHT22;7528;48.576;19.122;2022-11-13T12:11:30;31.40;26.50
14873;DHT22;7528;48.576;19.122;2022-11-13T12:17:08;31.50;26.70
14873;DHT22;7528;48.576;19.122;2022-11-13T12:22:36;31.80;26.30
14873;DHT22;7528;48.576;19.122;2022-11-13T12:28:12;31.50;26.60
14873;DHT22;7528;48.576;19.122;2022-11-13T12:33:42;31.40;27.10
14873;DHT22;7528;48.576;19.122;2022-11-13T12:39:20;31.40;27.30
14873;DHT22;7528;48.576;19.122;2022-11-13T12:44:53;31.40;26.80
14873;DHT22;7528;48.576;19.122;2022-11-13T12:50:23;31.50;26.50
14873;DHT22;7528;48.576;19.122;2022-11-13T12:55:54;31.40;26.50
14873;DHT22;7528;48.576;19.122;2022-11-13T13:01:20;31.40;26.50
14873;DHT22;7528;48.576;19.122;2022-11-13T13:06:53;31.40;26.50
14873;DHT22;7528;48.576;19.122;2022-11-13T13:12:26;31.60;26.70
14873;DHT22;7528;48.576;19.122;2022-11-13T13:18:03;31.30;27.10
14873;DHT22;7528;48.576;19.122;2022-11-13T13:23:28;31.30;27.40
14873;DHT22;7528;48.576;19.122;2022-11-13T13:28:53;31.00;27.60
14873;DHT22;7528;48.576;19.122;2022-11-13T13:34:25;30.70;27.60
14873;DHT22;7528;48.576;19.122;2022-11-13T13:39:57;30.50;27.80
14873;DHT22;7528;48.576;19.122;2022-11-13T13:45:28;30.30;27.50
14873;DHT22;7528;48.576;19.122;2022-11-13T13:50:53;29.60;28.40
14873;DHT22;7528;48.576;19.122;2022-11-13T13:56:16;29.40;28.40
14873;DHT22;7528;48.576;19.122;2022-11-13T14:01:38;29.30;28.80
14873;DHT22;7528;48.576;19.122;2022-11-13T14:07:01;28.90;28.70
14873;DHT22;7528;48.576;19.122;2022-11-13T14:12:23;27.60;29.60
14873;DHT22;7528;48.576;19.122;2022-11-13T14:17:44;26.40;31.20
14873;DHT22;7528;48.576;19.122;2022-11-13T14:23:10;25.20;33.30
14873;DHT22;7528;48.576;19.122;2022-11-13T14:28:40;24.40;34.60
14873;DHT22;7528;48.576;19.122;2022-11-13T14:34:08;23.80;35.50
14873;DHT22;7528;48.576;19.122;2022-11-13T14:39:33;23.20;36.80
14873;DHT22;7528;48.576;19.122;2022-11-13T14:45:10;22.70;37.80
14873;DHT22;7528;48.576;19.122;2022-11-13T14:50:34;22.10;39.00
14873;DHT22;7528;48.576;19.122;2022-11-13T14:55:57;21.40;41.80
14873;DHT22;7528;48.576;19.122;2022-11-13T15:01:21;20.90;42.40
14873;DHT22;7528;48.576;19.122;2022-11-13T15:06:42;20.40;43.20
14873;DHT22;7528;48.576;19.122;2022-11-13T15:12:08;20.10;43.40
14873;DHT22;7528;48.576;19.122;2022-11-13T15:17:30;19.70;43.70
14873;DHT22;7528;48.576;19.122;2022-11-13T15:22:51;19.40;44.90
14873;DHT22;7528;48.576;19.122;2022-11-13T15:28:14;19.00;45.40
14873;DHT22;7528;48.576;19.122;2022-11-13T15:33:35;18.60;46.30
14873;DHT22;7528;48.576;19.122;2022-11-13T15:38:56;18.20;46.80
14873;DHT22;7528;48.576;19.122;2022-11-13T15:44:19;17.90;47.20
14873;DHT22;7528;48.576;19.122;2022-11-13T15:49:40;17.60;47.80
14873;DHT22;7528;48.576;19.122;2022-11-13T15:55:02;17.30;48.30
14873;DHT22;7528;48.576;19.122;2022-11-13T16:00:28;17.00;48.90
14873;DHT22;7528;48.576;19.122;2022-11-13T16:05:49;16.70;49.30
14873;DHT22;7528;48.576;19.122;2022-11-13T16:11:13;16.50;50.00
14873;DHT22;7528;48.576;19.122;2022-11-13T16:16:37;16.20;50.60
14873;DHT22;7528;48.576;19.122;2022-11-13T16:21:58;15.80;51.80
14873;DHT22;7528;48.576;19.122;2022-11-13T16:27:24;15.60;51.70
14873;DHT22;7528;48.576;19.122;2022-11-13T16:32:48;15.40;52.00
14873;DHT22;7528;48.576;19.122;2022-11-13T16:38:11;15.30;52.50
14873;DHT22;7528;48.576;19.122;2022-11-13T16:43:32;15.10;52.80
14873;DHT22;7528;48.576;19.122;2022-11-13T16:48:55;14.80;53.10
14873;DHT22;7528;48.576;19.122;2022-11-13T16:54:16;14.50;53.80
14873;DHT22;7528;48.576;19.122;2022-11-13T16:59:37;14.20;54.20
14873;DHT22;7528;48.576;19.122;2022-11-13T17:05:00;14.10;54.40
14873;DHT22;7528;48.576;19.122;2022-11-13T17:10:21;14.00;54.80
14873;DHT22;7528;48.576;19.122;2022-11-13T17:15:42;13.80;55.00
14873;DHT22;7528;48.576;19.122;2022-11-13T17:21:05;13.60;55.40
14873;DHT22;7528;48.576;19.122;2022-11-13T17:26:27;13.40;55.80
14873;DHT22;7528;48.576;19.122;2022-11-13T17:31:48;13.20;56.10
14873;DHT22;7528;48.576;19.122;2022-11-13T17:37:11;13.10;56.40
14873;DHT22;7528;48.576;19.122;2022-11-13T17:42:32;13.00;56.80
14873;DHT22;7528;48.576;19.122;2022-11-13T17:47:53;12.90;56.10
14873;DHT22;7528;48.576;19.122;2022-11-13T17:53:15;12.80;56.60
14873;DHT22;7528;48.576;19.122;2022-11-13T17:58:37;12.60;56.80
14873;DHT22;7528;48.576;19.122;2022-11-13T18:03:58;12.40;57.40
14873;DHT22;7528;48.576;19.122;2022-11-13T18:09:21;12.30;57.70
14873;DHT22;7528;48.576;19.122;2022-11-13T18:14:42;12.10;58.00
14873;DHT22;7528;48.576;19.122;2022-11-13T18:20:05;12.00;57.90
14873;DHT22;7528;48.576;19.122;2022-11-13T18:25:27;11.90;58.30
14873;DHT22;7528;48.576;19.122;2022-11-13T18:30:48;11.80;58.40
14873;DHT22;7528;48.576;19.122;2022-11-13T18:36:10;11.70;58.50
14873;DHT22;7528;48.576;19.122;2022-11-13T18:41:33;11.60;58.50
14873;DHT22;7528;48.576;19.122;2022-11-13T18:46:55;11.50;58.60
14873;DHT22;7528;48.576;19.122;2022-11-13T18:52:16;11.40;58.90
14873;DHT22;7528;48.576;19.122;2022-11-13T18:57:38;11.30;58.90
14873;DHT22;7528;48.576;19.122;2022-11-13T19:03:00;11.20;59.10
14873;DHT22;7528;48.576;19.122;2022-11-13T19:08:21;11.10;59.50
14873;DHT22;7528;48.576;19.122;2022-11-13T19:13:44;11.10;59.20
14873;DHT22;7528;48.576;19.122;2022-11-13T19:19:10;10.90;59.50
14873;DHT22;7528;48.576;19.122;2022-11-13T19:24:33;10.70;59.70
14873;DHT22;7528;48.576;19.122;2022-11-13T19:29:55;10.60;59.70
14873;DHT22;7528;48.576;19.122;2022-11-13T19:35:16;10.60;59.60
14873;DHT22;7528;48.576;19.122;2022-11-13T19:40:37;10.50;60.00
14873;DHT22;7528;48.576;19.122;2022-11-13T19:46:03;10.40;60.10
14873;DHT22;7528;48.576;19.122;2022-11-13T19:51:25;10.50;59.80
14873;DHT22;7528;48.576;19.122;2022-11-13T19:56:46;10.40;59.80
14873;DHT22;7528;48.576;19.122;2022-11-13T20:02:09;10.30;59.90
14873;DHT22;7528;48.576;19.122;2022-11-13T20:07:30;10.20;60.20
14873;DHT22;7528;48.576;19.122;2022-11-13T20:12:51;10.00;60.50
14873;DHT22;7528;48.576;19.122;2022-11-13T20:18:14;9.90;60.40
14873;DHT22;7528;48.576;19.122;2022-11-13T20:23:35;9.80;60.60
14873;DHT22;7528;48.576;19.122;2022-11-13T20:28:56;9.80;60.70
14873;DHT22;7528;48.576;19.122;2022-11-13T20:34:19;9.70;60.70
14873;DHT22;7528;48.576;19.122;2022-11-13T20:39:40;9.60;61.00
14873;DHT22;7528;48.576;19.122;2022-11-13T20:45:01;9.50;62.00
14873;DHT22;7528;48.576;19.122;2022-11-13T20:50:23;9.40;62.20
14873;DHT22;7528;48.576;19.122;2022-11-13T20:55:45;9.20;61.70
14873;DHT22;7528;48.576;19.122;2022-11-13T21:01:08;9.20;61.80
14873;DHT22;7528;48.576;19.122;2022-11-13T21:06:30;9.20;62.00
14873;DHT22;7528;48.576;19.122;2022-11-13T21:11:51;9.20;61.90
14873;DHT22;7528;48.576;19.122;2022-11-13T21:17:12;9.10;61.90
14873;DHT22;7528;48.576;19.122;2022-11-13T21:22:35;9.10;62.10
14873;DHT22;7528;48.576;19.122;2022-11-13T21:27:56;9.10;61.80
14873;DHT22;7528;48.576;19.122;2022-11-13T21:33:17;9.00;61.80
14873;DHT22;7528;48.576;19.122;2022-11-13T21:38:40;8.90;62.10
14873;DHT22;7528;48.576;19.122;2022-11-13T21:44:04;8.90;62.00
14873;DHT22;7528;48.576;19.122;2022-11-13T21:49:26;8.80;62.40
14873;DHT22;7528;48.576;19.122;2022-11-13T21:54:48;8.80;62.70
14873;DHT22;7528;48.576;19.122;2022-11-13T22:00:10;8.80;62.50
14873;DHT22;7528;48.576;19.122;2022-11-13T22:05:31;8.90;62.90
14873;DHT22;7528;48.576;19.122;2022-11-13T22:10:54;8.80;63.30
14873;DHT22;7528;48.576;19.122;2022-11-13T22:16:16;8.70;63.50
14873;DHT22;7528;48.576;19.122;2022-11-13T22:21:37;8.60;63.20
14873;DHT22;7528;48.576;19.122;2022-11-13T22:26:59;8.70;64.10
14873;DHT22;7528;48.576;19.122;2022-11-13T22:32:20;8.80;64.30
14873;DHT22;7528;48.576;19.122;2022-11-13T22:37:42;8.80;64.00
14873;DHT22;7528;48.576;19.122;2022-11-13T22:43:04;8.80;64.30
14873;DHT22;7528;48.576;19.122;2022-11-13T22:48:25;8.70;65.20
14873;DHT22;7528;48.576;19.122;2022-11-13T22:53:48;8.70;66.60
14873;DHT22;7528;48.576;19.122;2022-11-13T22:59:11;8.60;66.10
14873;DHT22;7528;48.576;19.122;2022-11-13T23:04:32;8.50;67.00
14873;DHT22;7528;48.576;19.122;2022-11-13T23:09:54;8.50;67.70
14873;DHT22;7528;48.576;19.122;2022-11-13T23:15:16;8.50;68.50
14873;DHT22;7528;48.576;19.122;2022-11-13T23:20:38;8.50;68.60
14873;DHT22;7528;48.576;19.122;2022-11-13T23:26:00;8.40;69.00
14873;DHT22;7528;48.576;19.122;2022-11-13T23:31:23;8.50;69.10
14873;DHT22;7528;48.576;19.122;2022-11-13T23:36:44;8.50;69.00
14873;DHT22;7528;48.576;19.122;2022-11-13T23:42:05;8.40;69.50
14873;DHT22;7528;48.576;19.122;2022-11-13T23:47:28;8.40;69.40
14873;DHT22;7528;48.576;19.122;2022-11-13T23:52:49;8.40;69.30
14873;DHT22;7528;48.576;19.122;2022-11-13T23:58:11;8.30;70.00
